Terminal Aerodrome Forecast
Issued by NWS Amarillo, TX

Current Version | Previous Version | Text Only | Print | Product List | Glossary Off
Versions: 1 2 3 4 5 6 7 8 9 10 11 12 13 14

000
FTUS44 KAMA 201100
TAFAMA
TAF
KAMA 201120Z 2012/2112 17014KT P6SM SKC
     FM201400 18019G28KT P6SM SCT070 SCT250
     FM210100 17015KT P6SM BKN100=

USA.gov is the U.S. government's official web portal to all federal, state and local government web resources and services.